createdAt,value
2019-05-09T00:00:40.425Z,0
2019-05-09T00:01:50.999Z,0
2019-05-09T00:03:03.447Z,0.1
2019-05-09T00:04:11.189Z,0.1
2019-05-09T00:05:22.615Z,0.1
2019-05-09T00:06:33.726Z,0.1
2019-05-09T00:07:41.031Z,0.1
2019-05-09T00:08:50.634Z,0.1
2019-05-09T00:10:00.226Z,0.1
2019-05-09T00:11:10.812Z,0.1
2019-05-09T00:12:23.364Z,0.1
2019-05-09T00:13:31.045Z,0
2019-05-09T00:14:43.321Z,0.1
2019-05-09T00:15:51.240Z,0.5
2019-05-09T00:17:00.836Z,0.1
2019-05-09T00:18:10.445Z,0
2019-05-09T00:19:21.047Z,0.2
2019-05-09T00:20:30.656Z,0.1
2019-05-09T00:21:40.263Z,0.1
2019-05-09T00:22:50.872Z,0.2
2019-05-09T00:24:03.466Z,0.2
2019-05-09T00:25:13.006Z,0.1
2019-05-09T00:26:20.644Z,0.1
2019-05-09T00:27:30.265Z,0
2019-05-09T00:28:39.869Z,0.4
2019-05-09T00:29:50.438Z,0.1
2019-05-09T00:31:00.078Z,0.1
2019-05-09T00:32:10.627Z,0.4
2019-05-09T00:33:23.349Z,0.1
2019-05-09T00:34:30.844Z,0.4
2019-05-09T00:35:41.436Z,0.5
2019-05-09T00:36:51.047Z,0
2019-05-09T00:38:00.664Z,0.1
2019-05-09T00:39:13.304Z,0.1
2019-05-09T00:40:20.894Z,0.1
2019-05-09T00:41:30.502Z,0
2019-05-09T00:42:40.090Z,0.2
2019-05-09T00:43:50.727Z,0.3
2019-05-09T00:45:01.321Z,0.1
2019-05-09T00:46:10.930Z,0.1
2019-05-09T00:47:23.755Z,0.2
2019-05-09T00:48:33.412Z,0.1
2019-05-09T00:49:40.773Z,0.2
2019-05-09T00:50:50.398Z,2.4
2019-05-09T00:52:03.276Z,0
2019-05-09T00:53:10.593Z,0.4
2019-05-09T00:54:21.198Z,0.1
2019-05-09T00:55:32.674Z,0
2019-05-09T00:56:40.417Z,0
2019-05-09T00:57:52.858Z,0.1
2019-05-09T00:59:00.651Z,0
2019-05-09T01:00:14.187Z,0.1
2019-05-09T01:01:23.922Z,0.1
2019-05-09T01:02:31.448Z,0.2
2019-05-09T01:03:43.030Z,0
2019-05-09T01:04:52.648Z,0.1
2019-05-09T01:06:00.304Z,0.1
2019-05-09T01:07:10.876Z,0.1
2019-05-09T01:08:21.542Z,0
2019-05-09T01:09:33.128Z,0.1
2019-05-09T01:10:40.751Z,0.4
2019-05-09T01:11:50.376Z,0.2
2019-05-09T01:13:00.975Z,0.7
2019-05-09T01:14:10.600Z,0.1
2019-05-09T01:15:21.195Z,0.1
2019-05-09T01:16:30.822Z,0
2019-05-09T01:17:40.426Z,0
2019-05-09T01:18:51.044Z,0.8
2019-05-09T01:20:03.336Z,0.3
2019-05-09T01:21:13.093Z,0.1
2019-05-09T01:22:20.822Z,0.1
2019-05-09T01:23:30.442Z,0.2
2019-05-09T01:24:41.069Z,0.1
2019-05-09T01:25:52.950Z,0
2019-05-09T01:27:03.347Z,0.1
2019-05-09T01:28:10.885Z,0.1
2019-05-09T01:29:23.024Z,0.1
2019-05-09T01:30:33.338Z,0.1
2019-05-09T01:31:40.687Z,0.2
2019-05-09T01:32:53.730Z,0.1
2019-05-09T01:34:00.899Z,0.1
2019-05-09T01:35:13.137Z,0.1
2019-05-09T01:36:23.240Z,0.1
2019-05-09T01:37:30.699Z,0
2019-05-09T01:38:43.258Z,0.1
2019-05-09T01:39:50.951Z,0.4
2019-05-09T01:41:00.530Z,0.1
2019-05-09T01:42:11.137Z,0.3
2019-05-09T01:43:20.756Z,0.8
2019-05-09T01:44:33.214Z,0.1
2019-05-09T01:45:42.939Z,0.1
2019-05-09T01:46:53.776Z,0.1
2019-05-09T01:48:03.208Z,0.3
2019-05-09T01:49:13.747Z,0.4
2019-05-09T01:50:23.295Z,0.1
2019-05-09T01:51:30.997Z,0
2019-05-09T01:52:40.598Z,0.3
2019-05-09T01:53:53.126Z,0
2019-05-09T01:55:00.851Z,0.6
2019-05-09T01:56:10.465Z,0.1
2019-05-09T01:57:23.013Z,0.2
2019-05-09T01:58:30.643Z,0.1
2019-05-09T01:59:41.235Z,0
2019-05-09T02:00:53.828Z,0.1
2019-05-09T02:02:07.823Z,0
2019-05-09T02:03:13.924Z,0.1
2019-05-09T02:04:23.997Z,0
2019-05-09T02:05:31.269Z,0
2019-05-09T02:06:40.871Z,0
2019-05-09T02:07:51.460Z,0.1
2019-05-09T02:09:03.371Z,0
2019-05-09T02:10:10.663Z,0
2019-05-09T02:11:23.519Z,0
2019-05-09T02:12:30.900Z,0
2019-05-09T02:13:40.552Z,0
2019-05-09T02:14:51.210Z,0.1
2019-05-09T02:16:03.367Z,0.1
2019-05-09T02:17:11.397Z,0
2019-05-09T02:18:22.879Z,0
2019-05-09T02:19:30.631Z,0.4
2019-05-09T02:20:40.246Z,0
2019-05-09T02:21:52.887Z,0
2019-05-09T02:23:00.431Z,0.1
2019-05-09T02:24:11.014Z,0
2019-05-09T02:25:23.946Z,0
2019-05-09T02:26:33.245Z,0
2019-05-09T02:27:40.839Z,0
2019-05-09T02:28:50.443Z,0.1
2019-05-09T02:30:01.082Z,0
2019-05-09T02:31:15.523Z,0
2019-05-09T02:32:23.968Z,0
2019-05-09T02:33:34.612Z,0
2019-05-09T02:34:44.227Z,0.1
2019-05-09T02:35:57.173Z,0.6
2019-05-09T02:37:02.670Z,0.3
2019-05-09T02:38:12.234Z,0.2
2019-05-09T02:39:21.818Z,0
2019-05-09T02:40:31.403Z,0
2019-05-09T02:41:57.900Z,0
2019-05-09T02:42:51.560Z,0
2019-05-09T02:44:01.176Z,0
2019-05-09T02:45:10.832Z,0.3
2019-05-09T02:46:20.447Z,0
2019-05-09T02:47:30.041Z,0.1
2019-05-09T02:48:39.611Z,0.8
2019-05-09T02:49:49.230Z,0
2019-05-09T02:51:00.108Z,0
2019-05-09T02:52:08.959Z,0
2019-05-09T02:53:18.869Z,0.5
2019-05-09T02:54:29.706Z,0
2019-05-09T02:55:38.680Z,0
2019-05-09T02:56:49.207Z,0.1
2019-05-09T02:57:58.963Z,0.4
2019-05-09T02:59:09.138Z,0.2
2019-05-09T03:00:19.800Z,0.1
2019-05-09T03:01:29.332Z,0.1
2019-05-09T03:02:38.367Z,0.1
2019-05-09T03:03:48.168Z,0.1
2019-05-09T03:04:58.113Z,0.1
2019-05-09T03:06:08.754Z,0.1
2019-05-09T03:07:18.850Z,0.1
2019-05-09T03:08:29.205Z,0
2019-05-09T03:09:38.819Z,0.1
2019-05-09T03:10:48.927Z,0.1
2019-05-09T03:11:58.800Z,0.1
2019-05-09T03:13:08.995Z,0.3
2019-05-09T03:14:19.385Z,0.3
2019-05-09T03:15:29.086Z,0.1
2019-05-09T03:16:39.662Z,0.1
2019-05-09T03:17:49.304Z,0
2019-05-09T03:18:58.408Z,0.2
2019-05-09T03:20:09.399Z,0.1
2019-05-09T03:21:19.051Z,0.4
2019-05-09T03:22:28.238Z,0
2019-05-09T03:23:38.424Z,0.1
2019-05-09T03:24:48.531Z,0.1
2019-05-09T03:25:58.395Z,0.1
2019-05-09T03:27:08.488Z,0.1
2019-05-09T03:28:18.365Z,0.1
2019-05-09T03:29:25.605Z,0.1
2019-05-09T03:30:39.239Z,0
2019-05-09T03:31:50.001Z,0.4
2019-05-09T03:32:59.567Z,0.2
2019-05-09T03:34:09.297Z,0.4
2019-05-09T03:35:17.227Z,0.3
2019-05-09T03:36:28.093Z,0
2019-05-09T03:37:37.674Z,0
2019-05-09T03:38:47.373Z,0.2
2019-05-09T03:39:55.105Z,0.1
2019-05-09T03:41:05.723Z,0.1
2019-05-09T03:42:18.790Z,0.5
2019-05-09T03:43:27.425Z,0.1
2019-05-09T03:44:35.499Z,0.4
2019-05-09T03:45:48.043Z,0
2019-05-09T03:46:57.825Z,0.1
2019-05-09T03:48:06.903Z,0.3
2019-05-09T03:49:14.907Z,0.1
2019-05-09T03:50:27.741Z,0
2019-05-09T03:51:35.094Z,0
2019-05-09T03:52:44.718Z,0.2
2019-05-09T03:53:57.326Z,0.4
2019-05-09T03:55:07.127Z,0
2019-05-09T03:56:14.512Z,0.1
2019-05-09T03:57:25.118Z,0
2019-05-09T03:58:35.727Z,0.3
2019-05-09T03:59:45.330Z,0.2
2019-05-09T04:00:54.951Z,0.1
2019-05-09T04:02:09.642Z,0.1
2019-05-09T04:03:18.262Z,0.1
2019-05-09T04:04:28.053Z,0.1
2019-05-09T04:05:37.618Z,0.1
2019-05-09T04:06:47.951Z,0.3
2019-05-09T04:07:55.585Z,0.1
2019-05-09T04:09:07.343Z,0.1
2019-05-09T04:10:14.784Z,0.4
2019-05-09T04:11:27.436Z,0.1
2019-05-09T04:12:34.989Z,0
2019-05-09T04:13:47.621Z,0.1
2019-05-09T04:14:55.420Z,0.3
2019-05-09T04:16:07.477Z,0.5
2019-05-09T04:17:16.094Z,0
2019-05-09T04:18:27.498Z,0.2
2019-05-09T04:19:34.799Z,0.1
2019-05-09T04:20:45.386Z,0.4
2019-05-09T04:21:57.292Z,0
2019-05-09T04:23:04.596Z,0
2019-05-09T04:24:17.415Z,0.1
2019-05-09T04:25:24.778Z,0.1
2019-05-09T04:26:34.419Z,0.4
2019-05-09T04:27:45.033Z,0
2019-05-09T04:28:54.625Z,0.1
2019-05-09T04:30:07.109Z,0.3
2019-05-09T04:31:17.754Z,0.1
2019-05-09T04:32:27.316Z,2.1
2019-05-09T04:33:34.998Z,0.2
2019-05-09T04:34:47.280Z,0.2
2019-05-09T04:35:55.198Z,0.1
2019-05-09T04:37:04.897Z,0.3
2019-05-09T04:38:17.671Z,0.6
2019-05-09T04:39:25.081Z,0.3
2019-05-09T04:40:37.549Z,0.2
2019-05-09T04:41:48.325Z,0.7
2019-05-09T04:43:08.697Z,0.6
2019-05-09T04:44:14.162Z,0.1
2019-05-09T04:45:17.788Z,0.1
2019-05-09T04:46:27.754Z,0
2019-05-09T04:47:39.274Z,0
2019-05-09T04:48:47.658Z,0.2
2019-05-09T04:49:58.448Z,0.1
2019-05-09T04:51:08.101Z,0.3
2019-05-09T04:52:18.012Z,0.1
2019-05-09T04:53:28.567Z,0.2
2019-05-09T04:54:38.396Z,2.1
2019-05-09T04:55:47.916Z,0.1
2019-05-09T04:56:57.365Z,0.5
2019-05-09T04:58:05.401Z,0.9
2019-05-09T04:59:17.852Z,0.4
2019-05-09T05:00:24.627Z,0.3
2019-05-09T05:01:34.250Z,1.9
2019-05-09T05:02:44.854Z,5.6
2019-05-09T05:03:57.295Z,12.5
2019-05-09T05:05:05.063Z,12.3
2019-05-09T05:06:18.657Z,17.299999
2019-05-09T05:07:28.429Z,16.299999
2019-05-09T05:08:37.516Z,15.5
2019-05-09T05:09:45.512Z,15.6
2019-05-09T05:10:55.106Z,15.4
2019-05-09T05:12:08.108Z,15.7
2019-05-09T05:13:23.981Z,14.6
2019-05-09T05:14:27.983Z,14.3
2019-05-09T05:15:37.599Z,14.2
2019-05-09T05:16:45.123Z,14.9
2019-05-09T05:17:55.705Z,14.4
2019-05-09T05:19:07.318Z,14.6
2019-05-09T05:20:14.930Z,14.3
2019-05-09T05:21:25.497Z,11
2019-05-09T05:22:38.448Z,6.7
2019-05-09T05:23:47.248Z,2.6
2019-05-09T05:24:56.760Z,0.7
2019-05-09T05:26:05.885Z,0.3
2019-05-09T05:27:18.731Z,1
2019-05-09T05:28:27.793Z,0.3
2019-05-09T05:29:35.706Z,0.3
2019-05-09T05:30:47.510Z,2.1
2019-05-09T05:31:54.906Z,0.7
2019-05-09T05:33:07.886Z,0.3
2019-05-09T05:34:15.120Z,0.1
2019-05-09T05:35:28.212Z,0.1
2019-05-09T05:36:35.334Z,0.2
2019-05-09T05:37:47.685Z,0.1
2019-05-09T05:38:55.539Z,0.1
2019-05-09T05:40:07.513Z,0.1
2019-05-09T05:41:14.740Z,0.1
2019-05-09T05:42:27.666Z,0.1
2019-05-09T05:43:41.376Z,1.2
2019-05-09T05:44:47.588Z,0.1
2019-05-09T05:45:58.234Z,0.5
2019-05-09T05:47:07.674Z,0.2
2019-05-09T05:48:17.264Z,0.2
2019-05-09T05:49:24.964Z,0.6
2019-05-09T05:50:35.595Z,0.1
2019-05-09T05:51:45.230Z,0.5
2019-05-09T05:52:54.889Z,0.3
2019-05-09T05:54:04.488Z,1.1
2019-05-09T05:55:15.093Z,0.4
2019-05-09T05:56:27.767Z,0.5
2019-05-09T05:57:35.295Z,0.1
2019-05-09T05:58:45.905Z,0.1
2019-05-09T05:59:58.471Z,0.1
2019-05-09T06:01:08.176Z,0.9
2019-05-09T06:02:17.716Z,0.1
2019-05-09T06:03:25.270Z,0
2019-05-09T06:04:38.080Z,0
2019-05-09T06:05:49.025Z,0.2
2019-05-09T06:06:58.517Z,0.3
2019-05-09T06:08:07.932Z,0.1
2019-05-09T06:09:15.407Z,0.1
2019-05-09T06:10:26.006Z,0.5
2019-05-09T06:11:38.370Z,0.1
2019-05-09T06:12:48.151Z,0.1
2019-05-09T06:13:59.958Z,2.6
2019-05-09T06:15:07.533Z,0.2
2019-05-09T06:16:17.823Z,0.3
2019-05-09T06:17:28.583Z,0.1
2019-05-09T06:18:38.404Z,0.1
2019-05-09T06:19:48.158Z,0.1
2019-05-09T06:20:58.278Z,0.8
2019-05-09T06:22:08.135Z,0.4
2019-05-09T06:23:17.570Z,0.3
2019-05-09T06:24:25.231Z,0.1
2019-05-09T06:25:35.820Z,0.3
2019-05-09T06:26:47.832Z,0.2
2019-05-09T06:27:58.164Z,0.5
2019-05-09T06:29:07.908Z,0
2019-05-09T06:30:17.370Z,0.2
2019-05-09T06:31:24.820Z,0
2019-05-09T06:32:35.434Z,0.4
2019-05-09T06:33:52.558Z,0.6
2019-05-09T06:34:57.773Z,0.9
2019-05-09T06:36:07.929Z,0.3
2019-05-09T06:37:18.050Z,0.4
2019-05-09T06:38:27.972Z,0.1
2019-05-09T06:39:35.098Z,0.1
2019-05-09T06:40:44.683Z,0.1
2019-05-09T06:41:54.297Z,0.1
2019-05-09T06:43:04.909Z,0.1
2019-05-09T06:44:17.907Z,0.3
2019-05-09T06:45:27.222Z,0.2
2019-05-09T06:46:37.800Z,0.2
2019-05-09T06:47:45.276Z,0.3
2019-05-09T06:49:16.948Z,0
2019-05-09T06:50:07.917Z,0.3
2019-05-09T06:51:18.757Z,0
2019-05-09T06:52:28.176Z,0
2019-05-09T06:53:37.974Z,4.5
2019-05-09T06:54:48.388Z,0.1
2019-05-09T06:55:57.444Z,0.5
2019-05-09T06:57:05.142Z,0
2019-05-09T06:58:18.231Z,0.2
2019-05-09T06:59:25.392Z,0.1
2019-05-09T07:00:34.982Z,0.6
2019-05-09T07:01:47.950Z,0.1
2019-05-09T07:02:57.524Z,0.2
2019-05-09T07:04:05.764Z,0.2
2019-05-09T07:05:17.920Z,0.1
2019-05-09T07:06:28.283Z,0.3
2019-05-09T07:07:37.382Z,0.6
2019-05-09T07:08:47.495Z,0.1
2019-05-09T07:09:54.839Z,0.3
2019-05-09T07:11:07.326Z,0
2019-05-09T07:12:15.040Z,3.6
2019-05-09T07:13:27.063Z,0.2
2019-05-09T07:14:38.996Z,0
2019-05-09T07:15:47.998Z,0.4
2019-05-09T07:16:55.422Z,0.1
2019-05-09T07:18:08.076Z,0.1
2019-05-09T07:19:17.443Z,0.2
2019-05-09T07:20:25.232Z,0.2
2019-05-09T07:21:37.547Z,0.1
2019-05-09T07:22:47.850Z,0
2019-05-09T07:23:55.052Z,1.6
2019-05-09T07:25:10.048Z,0
2019-05-09T07:26:17.633Z,2
2019-05-09T07:27:26.426Z,0.1
2019-05-09T07:28:37.563Z,0.8
2019-05-09T07:29:45.034Z,0
2019-05-09T07:30:57.306Z,0.1
2019-05-09T07:32:07.314Z,0
2019-05-09T07:33:14.810Z,0.4
2019-05-09T07:34:27.550Z,0.2
2019-05-09T07:35:35.054Z,0.3
2019-05-09T07:36:47.588Z,0
2019-05-09T07:37:57.609Z,0.9
2019-05-09T07:39:04.838Z,0.9
2019-05-09T07:40:17.724Z,0.6
2019-05-09T07:41:25.033Z,0.1
2019-05-09T07:42:35.631Z,0.4
2019-05-09T07:43:47.755Z,0.7
2019-05-09T07:44:58.800Z,0.1
2019-05-09T07:46:08.655Z,0
2019-05-09T07:47:17.734Z,0
2019-05-09T07:48:25.603Z,0
2019-05-09T07:49:37.486Z,0.8
2019-05-09T07:50:44.860Z,0.1
2019-05-09T07:51:55.486Z,0.1
2019-05-09T07:53:08.453Z,0
2019-05-09T07:54:21.827Z,0.1
2019-05-09T07:55:27.417Z,0.2
2019-05-09T07:56:37.782Z,0.1
2019-05-09T07:57:49.315Z,0.5
2019-05-09T07:58:58.184Z,0.1
2019-05-09T08:00:07.730Z,0.1
2019-05-09T08:01:15.323Z,0.2
2019-05-09T08:02:27.549Z,0.2
2019-05-09T08:03:38.390Z,0.1
2019-05-09T08:04:48.551Z,0.1
2019-05-09T08:05:57.737Z,0.2
2019-05-09T08:07:05.261Z,0.5
2019-05-09T08:08:18.226Z,0
2019-05-09T08:09:27.821Z,0.1
2019-05-09T08:10:35.078Z,0.1
2019-05-09T08:11:48.134Z,0.1
2019-05-09T08:12:55.312Z,0.1
2019-05-09T08:14:08.317Z,0.1
2019-05-09T08:15:19.183Z,0.1
2019-05-09T08:16:27.846Z,0
2019-05-09T08:17:38.093Z,0.1
2019-05-09T08:18:48.265Z,0.8
2019-05-09T08:19:58.032Z,0.7
2019-05-09T08:21:05.436Z,0.1
2019-05-09T08:22:21.141Z,0
2019-05-09T08:23:27.379Z,0.1
2019-05-09T08:24:37.976Z,0
2019-05-09T08:25:48.272Z,0
2019-05-09T08:26:57.740Z,0.1
2019-05-09T08:28:05.037Z,0.1
2019-05-09T08:29:17.745Z,0
2019-05-09T08:30:32.825Z,0.4
2019-05-09T08:31:39.856Z,0
2019-05-09T08:32:48.178Z,0.3
2019-05-09T08:33:59.236Z,0.1
2019-05-09T08:35:08.195Z,0
2019-05-09T08:36:17.979Z,0.1
2019-05-09T08:37:28.228Z,0.2
2019-05-09T08:38:38.912Z,0.5
2019-05-09T08:39:48.126Z,0
2019-05-09T08:40:55.670Z,0.2
2019-05-09T08:42:08.426Z,0.3
2019-05-09T08:43:17.868Z,0.1
2019-05-09T08:44:28.572Z,0.1
2019-05-09T08:45:38.212Z,0.2
2019-05-09T08:46:48.080Z,0.1
2019-05-09T08:47:57.708Z,0.4
2019-05-09T08:49:08.130Z,1.1
2019-05-09T08:50:17.573Z,0.2
2019-05-09T08:51:25.185Z,0
2019-05-09T08:52:37.607Z,0.3
2019-05-09T08:53:47.901Z,0
2019-05-09T08:54:54.983Z,0
2019-05-09T08:56:04.618Z,0.2
2019-05-09T08:57:15.214Z,0.3
2019-05-09T08:58:27.724Z,0.7
2019-05-09T08:59:35.427Z,0.6
2019-05-09T09:00:45.033Z,0.1
2019-05-09T09:02:11.928Z,0
2019-05-09T09:03:07.927Z,4.6
2019-05-09T09:04:15.876Z,0.2
2019-05-09T09:05:28.760Z,0.1
2019-05-09T09:06:37.942Z,0.3
2019-05-09T09:07:48.172Z,0.1
2019-05-09T09:08:57.504Z,0.1
2019-05-09T09:10:08.108Z,0.1
2019-05-09T09:11:15.446Z,0.4
2019-05-09T09:12:31.040Z,0.4
2019-05-09T09:13:37.749Z,0.1
2019-05-09T09:14:47.771Z,0.3
2019-05-09T09:16:11.508Z,0
2019-05-09T09:17:07.870Z,0.2
2019-05-09T09:18:17.897Z,0
2019-05-09T09:19:27.784Z,0.5
2019-05-09T09:20:34.955Z,0
2019-05-09T09:21:47.493Z,0
2019-05-09T09:22:58.189Z,0
2019-05-09T09:24:05.547Z,0.1
2019-05-09T09:25:18.323Z,0.4
2019-05-09T09:26:27.678Z,0.1
2019-05-09T09:27:35.164Z,0.2
2019-05-09T09:28:44.710Z,0
2019-05-09T09:29:55.246Z,0.2
2019-05-09T09:31:08.092Z,0.2
2019-05-09T09:32:15.274Z,0.3
2019-05-09T09:33:27.947Z,0
2019-05-09T09:34:37.542Z,0
2019-05-09T09:35:44.864Z,0.4
2019-05-09T09:36:55.434Z,0.2
2019-05-09T09:38:05.972Z,0.5
2019-05-09T09:39:18.443Z,0
2019-05-09T09:40:27.839Z,0
2019-05-09T09:41:38.550Z,0.9
2019-05-09T09:42:48.676Z,1.2
2019-05-09T09:43:57.896Z,0.2
2019-05-09T09:45:07.532Z,0.3
2019-05-09T09:46:14.939Z,0
2019-05-09T09:47:25.220Z,0.1
2019-05-09T09:48:35.776Z,0
2019-05-09T09:49:48.760Z,0.4
2019-05-09T09:50:57.727Z,0
2019-05-09T09:52:05.335Z,0.2
2019-05-09T09:53:17.771Z,0
2019-05-09T09:54:27.845Z,0.4
2019-05-09T09:55:34.867Z,0.1
2019-05-09T09:56:47.613Z,0
2019-05-09T09:57:57.437Z,0
2019-05-09T09:59:05.485Z,0.1
2019-05-09T10:00:15.008Z,0.1
2019-05-09T10:01:25.515Z,0
2019-05-09T10:02:37.765Z,0.3
2019-05-09T10:03:47.365Z,0
2019-05-09T10:04:55.168Z,0
2019-05-09T10:06:04.683Z,0.1
2019-05-09T10:07:14.214Z,0.1
2019-05-09T10:08:24.734Z,0.2
2019-05-09T10:09:34.279Z,0
2019-05-09T10:10:43.808Z,0.1
2019-05-09T10:11:56.958Z,1.6
2019-05-09T10:13:05.069Z,0
2019-05-09T10:14:15.558Z,0.2
2019-05-09T10:15:28.020Z,0.1
2019-05-09T10:16:35.562Z,0.2
2019-05-09T10:17:47.659Z,0
2019-05-09T10:18:57.690Z,0.2
2019-05-09T10:20:05.125Z,0.3
2019-05-09T10:21:14.654Z,0.1
2019-05-09T10:22:25.647Z,0
2019-05-09T10:23:33.741Z,0.1
2019-05-09T10:24:44.251Z,0.1
2019-05-09T10:25:54.767Z,0.3
2019-05-09T10:27:08.292Z,0.1
2019-05-09T10:28:21.306Z,0.4
2019-05-09T10:29:27.888Z,0.1
2019-05-09T10:30:38.208Z,0.2
2019-05-09T10:31:45.451Z,0
2019-05-09T10:32:58.145Z,0.1
2019-05-09T10:34:05.510Z,0.1
2019-05-09T10:35:17.681Z,0.1
2019-05-09T10:36:27.635Z,0.2
2019-05-09T10:37:35.086Z,0.1
2019-05-09T10:38:47.765Z,0
2019-05-09T10:39:57.718Z,0.1
2019-05-09T10:41:05.768Z,0
2019-05-09T10:42:18.509Z,0
2019-05-09T10:43:35.335Z,0
2019-05-09T10:44:37.458Z,0.2
2019-05-09T10:45:45.721Z,0.1
2019-05-09T10:46:58.492Z,1
2019-05-09T10:48:08.083Z,0
2019-05-09T10:49:15.288Z,0.1
2019-05-09T10:50:24.810Z,0
2019-05-09T10:51:35.334Z,0.1
2019-05-09T10:52:44.836Z,1
2019-05-09T10:53:55.416Z,0
2019-05-09T10:55:08.672Z,0
2019-05-09T10:56:18.644Z,0.1
2019-05-09T10:57:30.152Z,0.1
2019-05-09T10:58:37.384Z,0.1
2019-05-09T10:59:48.250Z,0.5
2019-05-09T11:00:55.504Z,0
2019-05-09T11:02:09.096Z,0.2
2019-05-09T11:03:18.008Z,0
2019-05-09T11:04:28.522Z,0.8
2019-05-09T11:05:35.600Z,0.3
2019-05-09T11:06:45.160Z,0
2019-05-09T11:07:54.680Z,0.1
2019-05-09T11:09:05.251Z,0.2
2019-05-09T11:10:25.361Z,0.1
2019-05-09T11:11:28.376Z,0.3
2019-05-09T11:12:35.756Z,0.1
2019-05-09T11:13:47.800Z,0.2
2019-05-09T11:14:55.829Z,0.2
2019-05-09T11:16:07.635Z,0.3
2019-05-09T11:17:19.164Z,1.7
2019-05-09T11:18:28.397Z,0
2019-05-09T11:19:35.895Z,0.2
2019-05-09T11:20:45.410Z,0.1
2019-05-09T11:21:54.934Z,0.1
2019-05-09T11:23:07.855Z,3.5
2019-05-09T11:24:15.006Z,0.7
2019-05-09T11:25:27.542Z,0
2019-05-09T11:26:35.027Z,0
2019-05-09T11:27:45.517Z,0.2
2019-05-09T11:28:58.401Z,0
2019-05-09T11:30:05.565Z,0.1
2019-05-09T11:31:17.934Z,0.2
2019-05-09T11:32:27.648Z,0.4
2019-05-09T11:33:35.110Z,0.2
2019-05-09T11:34:48.414Z,0.4
2019-05-09T11:35:58.037Z,0.5
2019-05-09T11:37:08.301Z,0.3
2019-05-09T11:38:29.114Z,0.6
2019-05-09T11:39:36.288Z,0.1
2019-05-09T11:40:37.799Z,0
2019-05-09T11:41:48.644Z,0.4
2019-05-09T11:42:56.395Z,0.1
2019-05-09T11:44:08.446Z,0.1
2019-05-09T11:45:17.705Z,0.2
2019-05-09T11:46:24.971Z,0.1
2019-05-09T11:47:42.309Z,0.3
2019-05-09T11:48:45.997Z,0
2019-05-09T11:49:57.755Z,0
2019-05-09T11:51:05.059Z,0.1
2019-05-09T11:52:18.100Z,0
2019-05-09T11:53:25.095Z,0.1
2019-05-09T11:54:35.633Z,0
2019-05-09T11:55:48.145Z,0.1
2019-05-09T11:56:57.578Z,0.2
2019-05-09T11:58:05.200Z,0
2019-05-09T11:59:15.744Z,0.4
2019-05-09T12:00:26.298Z,0
2019-05-09T12:01:39.395Z,0.5
2019-05-09T12:02:49.846Z,0
2019-05-09T12:03:57.725Z,0
2019-05-09T12:05:08.498Z,0.6
2019-05-09T12:06:16.332Z,0
2019-05-09T12:07:28.743Z,0
2019-05-09T12:08:38.524Z,0
2019-05-09T12:09:45.537Z,0
2019-05-09T12:10:57.888Z,0.1
2019-05-09T12:12:05.599Z,0.1
2019-05-09T12:13:15.152Z,0.3
2019-05-09T12:14:27.599Z,0
2019-05-09T12:15:35.227Z,0.1
2019-05-09T12:16:47.991Z,0
2019-05-09T12:17:59.049Z,0
2019-05-09T12:19:05.760Z,0
2019-05-09T12:20:15.304Z,0
2019-05-09T12:21:24.833Z,0.1
2019-05-09T12:22:35.345Z,0
2019-05-09T12:23:44.882Z,0
2019-05-09T12:24:55.452Z,0
2019-05-09T12:26:08.149Z,0
2019-05-09T12:27:15.405Z,0.1
2019-05-09T12:28:25.947Z,0
2019-05-09T12:29:35.481Z,0
2019-05-09T12:30:48.770Z,0
2019-05-09T12:31:56.546Z,0
2019-05-09T12:33:08.514Z,0
2019-05-09T12:34:18.887Z,0.3
2019-05-09T12:35:26.204Z,0
2019-05-09T12:36:35.731Z,0
2019-05-09T12:37:48.228Z,0
2019-05-09T12:38:58.746Z,0.1
2019-05-09T12:40:08.287Z,0
2019-05-09T12:41:15.839Z,0.1
2019-05-09T12:42:28.771Z,0
2019-05-09T12:43:38.161Z,1.2
2019-05-09T12:44:46.421Z,0
2019-05-09T12:45:57.760Z,0
2019-05-09T12:47:06.540Z,0
2019-05-09T12:48:19.202Z,3.4
2019-05-09T12:49:28.268Z,0.3
2019-05-09T12:50:38.523Z,0
2019-05-09T12:51:45.606Z,0
2019-05-09T12:52:55.170Z,0
2019-05-09T12:54:04.693Z,0.1
2019-05-09T12:55:15.207Z,0.1
2019-05-09T12:56:24.753Z,0
2019-05-09T12:57:35.292Z,0
2019-05-09T12:58:47.677Z,0.7
2019-05-09T12:59:55.290Z,0
2019-05-09T13:01:07.458Z,0.4
2019-05-09T13:02:17.549Z,0.7
2019-05-09T13:03:24.834Z,0.1
2019-05-09T13:04:34.372Z,0
2019-05-09T13:05:46.978Z,0
2019-05-09T13:06:54.429Z,0
2019-05-09T13:08:04.941Z,0
2019-05-09T13:09:17.504Z,0.1
2019-05-09T13:10:24.999Z,0
2019-05-09T13:11:35.538Z,0
2019-05-09T13:12:48.333Z,0
2019-05-09T13:13:56.556Z,0.1
2019-05-09T13:15:08.597Z,1.2
2019-05-09T13:16:17.638Z,0
2019-05-09T13:17:27.176Z,0.1
2019-05-09T13:18:34.709Z,0.9
2019-05-09T13:19:44.232Z,0
2019-05-09T13:20:54.782Z,0
2019-05-09T13:22:07.795Z,0
2019-05-09T13:23:17.862Z,0.1
2019-05-09T13:24:25.350Z,0.5
2019-05-09T13:25:38.062Z,0
2019-05-09T13:26:47.711Z,0.1
2019-05-09T13:27:55.070Z,0.1
2019-05-09T13:29:07.847Z,0.2
2019-05-09T13:30:14.977Z,0
2019-05-09T13:31:29.069Z,0
2019-05-09T13:32:37.483Z,0
2019-05-09T13:33:45.561Z,0
2019-05-09T13:34:57.778Z,0
2019-05-09T13:36:05.764Z,0
2019-05-09T13:37:18.780Z,0
2019-05-09T13:38:27.568Z,0.1
2019-05-09T13:39:35.315Z,1.3
2019-05-09T13:40:52.855Z,0
2019-05-09T13:41:58.209Z,0
2019-05-09T13:43:08.653Z,0
2019-05-09T13:44:18.025Z,0
2019-05-09T13:45:28.439Z,0
2019-05-09T13:46:35.467Z,0.2
2019-05-09T13:47:47.750Z,0
2019-05-09T13:49:07.853Z,0.4
2019-05-09T13:50:08.797Z,0.1
2019-05-09T13:51:18.336Z,0
2019-05-09T13:52:27.373Z,0.2
2019-05-09T13:53:35.610Z,0
2019-05-09T13:54:48.217Z,0
2019-05-09T13:55:57.807Z,0
2019-05-09T13:57:05.431Z,0.6
2019-05-09T13:58:19.235Z,0.1
2019-05-09T13:59:29.026Z,0
2019-05-09T14:00:39.041Z,0
2019-05-09T14:01:48.022Z,0.2
2019-05-09T14:02:57.015Z,0
2019-05-09T14:04:07.832Z,0
2019-05-09T14:05:18.564Z,0.2
2019-05-09T14:06:27.703Z,0.1
2019-05-09T14:07:37.659Z,0.2
2019-05-09T14:08:48.455Z,0.1
2019-05-09T14:09:56.184Z,0
2019-05-09T14:11:08.275Z,0
2019-05-09T14:12:17.285Z,0.1
2019-05-09T14:13:24.789Z,0
2019-05-09T14:14:37.782Z,0.1
2019-05-09T14:15:44.815Z,0.1
2019-05-09T14:16:55.368Z,0
2019-05-09T14:18:08.043Z,0
2019-05-09T14:19:31.062Z,0.2
2019-05-09T14:20:27.502Z,0.2
2019-05-09T14:21:35.431Z,0
2019-05-09T14:22:44.966Z,0
2019-05-09T14:24:05.576Z,0.3
2019-05-09T14:25:07.981Z,0.2
2019-05-09T14:26:17.931Z,0.1
2019-05-09T14:27:28.276Z,0
2019-05-09T14:28:36.490Z,0
2019-05-09T14:29:46.032Z,0.1
2019-05-09T14:30:56.519Z,0.6
2019-05-09T14:32:06.035Z,0.1
2019-05-09T14:33:15.570Z,0
2019-05-09T14:34:25.088Z,0
2019-05-09T14:35:35.614Z,0.1
2019-05-09T14:36:49.333Z,0
2019-05-09T14:37:58.919Z,0.1
2019-05-09T14:39:06.203Z,0
2019-05-09T14:40:17.553Z,0
2019-05-09T14:41:27.680Z,0.4
2019-05-09T14:42:35.808Z,0
2019-05-09T14:43:48.249Z,0.1
2019-05-09T14:44:55.836Z,5.3
2019-05-09T14:46:05.366Z,0
2019-05-09T14:47:17.355Z,0.2
2019-05-09T14:48:24.417Z,0.1
2019-05-09T14:49:41.125Z,0
2019-05-09T14:50:45.429Z,0.1
2019-05-09T14:51:57.868Z,0.2
2019-05-09T14:53:07.833Z,0.1
2019-05-09T14:54:15.937Z,0
2019-05-09T14:55:25.445Z,0.3
2019-05-09T14:56:40.859Z,0.1
2019-05-09T14:57:47.929Z,0.1
2019-05-09T14:58:57.889Z,0
2019-05-09T15:00:07.718Z,0.1
2019-05-09T15:01:15.114Z,0.4
2019-05-09T15:02:25.739Z,0.3
2019-05-09T15:03:35.269Z,0.2
2019-05-09T15:04:45.802Z,0
2019-05-09T15:05:57.353Z,0.9
2019-05-09T15:07:04.900Z,0.3
2019-05-09T15:08:14.451Z,0.3
2019-05-09T15:09:24.978Z,0.4
2019-05-09T15:10:35.512Z,0
2019-05-09T15:11:45.028Z,0
2019-05-09T15:12:55.540Z,0
2019-05-09T15:14:08.033Z,0
2019-05-09T15:15:15.603Z,0
2019-05-09T15:16:25.116Z,0
2019-05-09T15:17:35.644Z,0
2019-05-09T15:18:45.182Z,0.1
2019-05-09T15:20:00.172Z,0
2019-05-09T15:21:07.950Z,5
2019-05-09T15:22:15.693Z,0
2019-05-09T15:23:25.219Z,0
2019-05-09T15:24:35.740Z,0
2019-05-09T15:25:48.001Z,0.2
2019-05-09T15:26:57.734Z,0
2019-05-09T15:28:07.853Z,0.3
2019-05-09T15:29:14.863Z,0
2019-05-09T15:30:24.373Z,0.7
2019-05-09T15:31:34.889Z,0.5
2019-05-09T15:32:47.394Z,0.3
2019-05-09T15:33:54.972Z,0.1
2019-05-09T15:35:04.500Z,0
2019-05-09T15:36:15.029Z,0
2019-05-09T15:37:28.296Z,0
2019-05-09T15:38:37.944Z,0
2019-05-09T15:39:48.159Z,0.2
2019-05-09T15:40:55.213Z,0.3
2019-05-09T15:42:04.770Z,0.1
2019-05-09T15:43:14.274Z,0.1
2019-05-09T15:44:24.793Z,0.1
2019-05-09T15:45:34.302Z,0.2
2019-05-09T15:46:43.818Z,0
2019-05-09T15:47:53.334Z,0.4
2019-05-09T15:49:02.875Z,0.1
2019-05-09T15:50:19.915Z,0
2019-05-09T15:51:22.893Z,0
2019-05-09T15:52:32.470Z,0
2019-05-09T15:53:41.992Z,0
2019-05-09T15:54:51.567Z,0
2019-05-09T15:56:01.048Z,0
2019-05-09T15:57:10.616Z,0
2019-05-09T15:58:20.153Z,0
2019-05-09T15:59:29.645Z,0
2019-05-09T16:00:39.194Z,0.1
2019-05-09T16:01:49.083Z,0.6
2019-05-09T16:02:58.945Z,0.1
2019-05-09T16:04:08.553Z,0.2
2019-05-09T16:05:17.964Z,0.2
2019-05-09T16:06:32.463Z,0.3
2019-05-09T16:07:37.459Z,1.7
2019-05-09T16:08:45.986Z,0.1
2019-05-09T16:09:57.470Z,0
2019-05-09T16:11:05.030Z,0.2
2019-05-09T16:12:15.538Z,0.1
2019-05-09T16:13:25.083Z,0
2019-05-09T16:14:37.858Z,0
2019-05-09T16:15:45.116Z,0
2019-05-09T16:16:55.626Z,0.1
2019-05-09T16:18:05.241Z,0
2019-05-09T16:19:15.826Z,0
2019-05-09T16:20:36.727Z,0
2019-05-09T16:21:38.029Z,0
2019-05-09T16:22:48.015Z,0
2019-05-09T16:23:55.063Z,0
2019-05-09T16:25:05.680Z,0